Falls City, Texas
Current Conditions -  °F | °C
As of 2:35 AM on Monday 22 Dec 2014 (Local Time) from KPEZ Reporting Station
Haze Haze  
Wind Chill: 57°   Ceiling: 200
Heat Index: 57°   Visibility: 2mi
Dew Point: 56°   Wind: 0mph
Humidity: 98%   Direction: NA
Pressure: 29.82"   Gusts: NA
Location:  28.98°N, 98.02°W
Report Text: KPEZ 220835Z AUTO 00000KT 2SM BR OVC002 14/14 A2982 RMK AO2 T01380135
Loading
Personal Weather Stations






























Interactive Weather Map New forecast layout! Learn more

10-Day Weather Forecast

Advertisements
Track Severe Weather on mobile